createdAt,value
2019-04-22T00:03:52.182Z,13.33
2019-04-22T00:09:13.805Z,14.70
2019-04-22T00:14:11.856Z,14.03
2019-04-22T00:19:22.686Z,14.47
2019-04-22T00:24:27.568Z,14.57
2019-04-22T00:29:50.163Z,15.50
2019-04-22T00:34:37.162Z,15.27
2019-04-22T00:39:42.629Z,16.27
2019-04-22T00:44:47.046Z,15.93
2019-04-22T00:55:06.034Z,17.23
2019-04-22T01:00:05.542Z,16.93
2019-04-22T01:05:09.780Z,19.37
2019-04-22T01:10:13.036Z,17.70
2019-04-22T01:15:19.189Z,18.33
2019-04-22T01:20:29.456Z,18.97
2019-04-22T01:25:21.690Z,19.20
2019-04-22T01:30:22.159Z,20.67
2019-04-22T01:35:25.460Z,20.57
2019-04-22T01:40:45.521Z,19.80
2019-04-22T01:45:45.109Z,21.67
2019-04-22T01:50:50.082Z,20.60
2019-04-22T01:55:59.037Z,20.97
2019-04-22T02:06:44.366Z,21.57
2019-04-22T02:11:54.460Z,22.70
2019-04-22T02:16:56.233Z,22.37
2019-04-22T02:21:56.537Z,23.43
2019-04-22T02:26:54.553Z,22.60
2019-04-22T02:32:13.366Z,23.83
2019-04-22T02:37:13.368Z,23.90
2019-04-22T02:47:20.907Z,24.07
2019-04-22T02:52:34.845Z,24.83
2019-04-22T03:07:40.943Z,24.80
2019-04-22T03:12:41.821Z,25.23
2019-04-22T03:17:51.726Z,25.50
2019-04-22T03:23:00.295Z,25.53
2019-04-22T03:28:14.433Z,26.50
2019-04-22T03:33:10.989Z,25.40
2019-04-22T03:38:28.916Z,27.97
2019-04-22T03:48:17.701Z,26.97
2019-04-22T03:53:21.245Z,29.17
2019-04-22T03:58:25.395Z,29.50
2019-04-22T04:03:28.370Z,28.63
2019-04-22T04:08:33.375Z,29.50
2019-04-22T04:13:39.486Z,32.00
2019-04-22T04:18:57.817Z,31.50
2019-04-22T04:24:22.467Z,32.23
2019-04-22T04:29:05.070Z,32.67
2019-04-22T04:34:03.669Z,32.43
2019-04-22T04:39:10.915Z,34.80
2019-04-22T04:44:34.244Z,33.70
2019-04-22T04:49:19.145Z,35.23
2019-04-22T04:54:31.701Z,35.80
2019-04-22T04:59:41.829Z,35.07
2019-04-22T05:04:51.150Z,34.63
2019-04-22T05:14:41.574Z,38.10
2019-04-22T05:24:43.285Z,38.17
2019-04-22T05:34:52.814Z,40.00
2019-04-22T05:40:06.581Z,38.77
2019-04-22T05:45:05.244Z,38.87
2019-04-22T05:50:03.582Z,39.60
2019-04-22T05:55:22.683Z,38.33
2019-04-22T06:00:14.588Z,39.63
2019-04-22T06:05:17.367Z,38.87
2019-04-22T06:10:29.595Z,38.97
2019-04-22T06:15:29.070Z,39.70
2019-04-22T06:20:36.951Z,41.03
2019-04-22T06:25:58.493Z,36.33
2019-04-22T06:30:53.880Z,35.43
2019-04-22T06:35:48.671Z,36.03
2019-04-22T06:40:56.760Z,36.87
2019-04-22T06:46:11.413Z,36.40
2019-04-22T06:51:09.461Z,35.10
2019-04-22T06:56:12.481Z,35.27
2019-04-22T07:06:26.561Z,31.40
2019-04-22T07:11:18.848Z,29.90
2019-04-22T07:16:38.147Z,28.67
2019-04-22T07:21:44.199Z,26.67
2019-04-22T07:26:51.260Z,24.77
2019-04-22T07:31:56.273Z,24.23
2019-04-22T07:37:12.513Z,22.53
2019-04-22T07:41:56.127Z,20.77
2019-04-22T07:47:15.254Z,19.57
2019-04-22T07:52:09.520Z,19.00
2019-04-22T07:57:22.744Z,17.67
2019-04-22T08:02:16.287Z,17.93
2019-04-22T08:07:24.182Z,18.50
2019-04-22T08:12:28.143Z,18.27
2019-04-22T08:17:52.071Z,17.77
2019-04-22T08:22:39.469Z,17.30
2019-04-22T08:27:35.594Z,17.17
2019-04-22T08:37:50.956Z,18.17
2019-04-22T08:43:02.166Z,18.37
2019-04-22T08:47:54.853Z,16.73
2019-04-22T08:53:02.052Z,15.60
2019-04-22T09:03:10.346Z,16.13
2019-04-22T09:08:14.264Z,16.00
2019-04-22T09:13:13.925Z,15.90
2019-04-22T09:18:25.129Z,15.57
2019-04-22T09:28:33.199Z,15.03
2019-04-22T09:33:32.102Z,15.53
2019-04-22T09:43:49.032Z,16.53
2019-04-22T09:48:50.326Z,15.33
2019-04-22T09:54:02.403Z,16.03
2019-04-22T09:58:59.003Z,16.03
2019-04-22T10:04:00.631Z,15.20
2019-04-22T10:09:29.869Z,14.87
2019-04-22T10:14:12.493Z,15.00
2019-04-22T10:19:18.664Z,14.27
2019-04-22T10:24:36.931Z,13.10
2019-04-22T10:29:38.598Z,11.50
2019-04-22T10:34:16.892Z,10.83
2019-04-22T10:39:12.677Z,10.37
2019-04-22T10:44:15.340Z,9.97
2019-04-22T10:49:18.198Z,9.60
2019-04-22T10:54:20.865Z,7.87
2019-04-22T10:59:24.702Z,8.30
2019-04-22T11:04:28.507Z,7.73
2019-04-22T11:09:31.060Z,8.03
2019-04-22T11:14:34.726Z,7.47
2019-04-22T11:19:37.351Z,7.53
2019-04-22T11:24:41.059Z,8.00
2019-04-22T11:29:43.849Z,8.23
2019-04-22T11:34:51.124Z,7.67
2019-04-22T11:40:04.611Z,8.33
2019-04-22T11:44:59.348Z,8.07
2019-04-22T11:50:02.080Z,8.40
2019-04-22T11:55:06.477Z,6.63
2019-04-22T12:00:10.261Z,7.87
2019-04-22T12:05:14.234Z,7.77
2019-04-22T12:10:28.535Z,8.13
2019-04-22T12:15:22.662Z,7.63
2019-04-22T12:20:29.337Z,7.90
2019-04-22T12:25:46.433Z,8.33
2019-04-22T12:30:39.436Z,8.10
2019-04-22T12:35:42.326Z,8.20
2019-04-22T12:40:52.265Z,7.73
2019-04-22T12:45:50.138Z,8.47
2019-04-22T12:50:56.453Z,8.13
2019-04-22T12:55:59.451Z,7.77
2019-04-22T13:01:04.988Z,7.97
2019-04-22T13:06:09.870Z,8.10
2019-04-22T13:11:19.468Z,8.20
2019-04-22T13:16:20.683Z,7.77
2019-04-22T13:21:22.889Z,8.27
2019-04-22T13:26:25.451Z,8.77
2019-04-22T13:31:29.036Z,8.40
2019-04-22T13:36:31.814Z,9.00
2019-04-22T13:41:44.006Z,8.87
2019-04-22T13:46:41.113Z,9.00
2019-04-22T13:57:10.282Z,7.80
2019-04-22T14:02:16.906Z,8.10
2019-04-22T14:07:19.123Z,7.70
2019-04-22T14:12:21.766Z,7.83
2019-04-22T14:17:25.229Z,7.10
2019-04-22T14:22:28.343Z,6.97
2019-04-22T14:27:44.333Z,7.10
2019-04-22T14:32:37.952Z,6.63
2019-04-22T14:37:43.186Z,6.63
2019-04-22T14:43:07.135Z,6.30
2019-04-22T14:48:19.997Z,6.50
2019-04-22T14:53:19.415Z,5.73
2019-04-22T14:58:01.182Z,6.33
2019-04-22T15:03:03.918Z,6.97
2019-04-22T15:08:08.855Z,6.50
2019-04-22T15:13:11.657Z,6.17
2019-04-22T15:18:44.059Z,6.07
2019-04-22T15:23:46.717Z,6.83
2019-04-22T15:28:53.430Z,6.17
2019-04-22T15:33:58.454Z,6.27
2019-04-22T15:39:05.106Z,6.40
2019-04-22T15:44:08.008Z,6.27
2019-04-22T15:49:11.786Z,6.70
2019-04-22T15:54:16.473Z,6.43
2019-04-22T15:59:40.695Z,6.53
2019-04-22T16:04:26.306Z,6.83
2019-04-22T16:09:31.405Z,6.97
2019-04-22T16:14:41.210Z,6.30
2019-04-22T16:19:39.066Z,6.10
2019-04-22T16:24:58.277Z,5.80
2019-04-22T16:30:03.661Z,5.50
2019-04-22T16:35:08.713Z,6.50
2019-04-22T16:40:12.427Z,5.20
2019-04-22T16:45:15.725Z,5.30
2019-04-22T16:50:20.928Z,5.30
2019-04-22T16:55:23.555Z,5.40
2019-04-22T17:00:26.939Z,5.07
2019-04-22T17:05:59.250Z,5.00
2019-04-22T17:11:04.026Z,5.00
2019-04-22T17:16:07.073Z,4.40
2019-04-22T17:21:10.621Z,4.57
2019-04-22T17:26:14.589Z,4.70
2019-04-22T17:31:16.836Z,4.60
2019-04-22T17:36:20.283Z,4.00
2019-04-22T17:41:38.627Z,4.43
2019-04-22T17:46:51.074Z,4.07
2019-04-22T17:52:21.216Z,3.90
2019-04-22T17:57:21.607Z,3.67
2019-04-22T18:02:25.177Z,3.80
2019-04-22T18:07:35.814Z,4.00
2019-04-22T18:17:43.051Z,4.27
2019-04-22T18:22:37.256Z,3.60
2019-04-22T18:27:55.271Z,3.43
2019-04-22T18:32:52.185Z,4.27
2019-04-22T18:37:53.744Z,4.47
2019-04-22T18:43:06.228Z,3.17
2019-04-22T18:48:00.953Z,3.30
2019-04-22T18:53:23.329Z,3.47
2019-04-22T18:58:16.304Z,3.40
2019-04-22T19:03:15.622Z,3.13
2019-04-22T19:08:31.544Z,3.10
2019-04-22T19:18:45.970Z,3.10
2019-04-22T19:23:49.155Z,2.80
2019-04-22T19:29:00.738Z,2.57
2019-04-22T19:34:06.211Z,2.83
2019-04-22T19:39:06.965Z,2.97
2019-04-22T19:44:17.748Z,2.67
2019-04-22T19:49:23.766Z,2.83
2019-04-22T19:54:17.401Z,2.70
2019-04-22T19:59:25.368Z,2.90
2019-04-22T20:05:02.778Z,3.00
2019-04-22T20:10:00.129Z,3.30
2019-04-22T20:15:00.402Z,3.67
2019-04-22T20:20:09.683Z,4.03
2019-04-22T20:24:56.430Z,3.93
2019-04-22T20:30:13.999Z,4.20
2019-04-22T20:35:21.599Z,4.20
2019-04-22T20:40:29.787Z,4.40
2019-04-22T20:45:34.795Z,4.90
2019-04-22T20:50:36.386Z,4.47
2019-04-22T20:55:42.041Z,5.10
2019-04-22T21:00:38.917Z,4.60
2019-04-22T21:05:47.145Z,4.50
2019-04-22T21:10:52.094Z,5.07
2019-04-22T21:16:11.650Z,4.47
2019-04-22T21:21:07.180Z,3.90
2019-04-22T21:26:13.828Z,4.00
2019-04-22T21:31:23.724Z,4.03
2019-04-22T21:41:24.910Z,4.10
2019-04-22T21:46:33.513Z,4.10
2019-04-22T21:51:39.928Z,3.70
2019-04-22T21:57:09.128Z,3.97
2019-04-22T22:02:16.198Z,3.60
2019-04-22T22:06:57.768Z,3.27
2019-04-22T22:12:10.380Z,3.30
2019-04-22T22:17:20.642Z,3.20
2019-04-22T22:22:42.243Z,3.50
2019-04-22T22:27:34.254Z,3.40
2019-04-22T22:32:33.767Z,3.73
2019-04-22T22:37:28.321Z,3.50
2019-04-22T22:42:30.156Z,3.30
2019-04-22T22:47:45.672Z,3.37
2019-04-22T22:52:58.972Z,3.37
2019-04-22T22:57:58.374Z,3.13
2019-04-22T23:03:24.605Z,3.30
2019-04-22T23:08:15.633Z,3.00
2019-04-22T23:13:20.460Z,2.80
2019-04-22T23:17:51.879Z,3.10
2019-04-22T23:23:17.243Z,3.13
2019-04-22T23:28:29.832Z,3.33
2019-04-22T23:33:42.726Z,3.00
2019-04-22T23:38:51.892Z,2.70
2019-04-22T23:43:55.671Z,2.97
2019-04-22T23:48:51.938Z,3.00
2019-04-22T23:54:18.677Z,2.70
2019-04-22T23:59:10.292Z,3.50
